createdAt,value
2022-07-26T00:00:33.295Z,1008.26
2022-07-26T00:01:33.411Z,1008.25
2022-07-26T00:02:33.500Z,1008.24
2022-07-26T00:03:33.381Z,1008.20
2022-07-26T00:04:33.414Z,1008.18
2022-07-26T00:05:34.064Z,1008.22
2022-07-26T00:06:33.487Z,1008.20
2022-07-26T00:08:33.541Z,1008.14
2022-07-26T00:09:33.561Z,1008.15
2022-07-26T00:10:33.591Z,1008.19
2022-07-26T00:11:33.629Z,1008.16
2022-07-26T00:12:33.651Z,1008.15
2022-07-26T00:13:33.682Z,1008.15
2022-07-26T00:14:33.725Z,1008.15
2022-07-26T00:15:33.742Z,1008.22
2022-07-26T00:16:36.732Z,1008.20
2022-07-26T00:17:33.815Z,1008.21
2022-07-26T00:18:33.845Z,1008.21
2022-07-26T00:19:33.863Z,1008.19
2022-07-26T00:20:33.891Z,1008.21
2022-07-26T00:21:33.921Z,1008.19
2022-07-26T00:22:33.951Z,1008.24
2022-07-26T00:23:33.983Z,1008.21
2022-07-26T00:24:35.601Z,1008.21
2022-07-26T00:25:34.041Z,1008.25
2022-07-26T00:26:34.070Z,1008.21
2022-07-26T00:27:34.101Z,1008.22
2022-07-26T00:28:34.130Z,1008.18
2022-07-26T00:29:34.160Z,1008.20
2022-07-26T00:30:34.189Z,1008.16
2022-07-26T00:31:34.391Z,1008.20
2022-07-26T00:32:34.251Z,1008.17
2022-07-26T00:33:34.297Z,1008.19
2022-07-26T00:34:34.319Z,1008.18
2022-07-26T00:35:34.340Z,1008.21
2022-07-26T00:36:34.380Z,1008.20
2022-07-26T00:37:34.720Z,1008.16
2022-07-26T00:38:34.432Z,1008.11
2022-07-26T00:39:34.460Z,1008.13
2022-07-26T00:40:34.500Z,1008.09
2022-07-26T00:42:34.565Z,1008.14
2022-07-26T00:44:34.618Z,1008.13
2022-07-26T00:46:34.706Z,1008.14
2022-07-26T00:48:34.785Z,1008.22
2022-07-26T00:49:34.777Z,1008.20
2022-07-26T00:50:34.785Z,1008.20
2022-07-26T00:51:34.817Z,1008.18
2022-07-26T00:52:34.846Z,1008.21
2022-07-26T00:54:34.906Z,1008.24
2022-07-26T00:55:34.933Z,1008.24
2022-07-26T00:56:35.991Z,1008.28
2022-07-26T00:57:35.003Z,1008.26
2022-07-26T00:58:35.038Z,1008.29
2022-07-26T00:59:35.061Z,1008.29
2022-07-26T01:00:35.086Z,1008.32
2022-07-26T01:01:35.314Z,1008.30
2022-07-26T01:02:35.232Z,1008.32
2022-07-26T01:03:39.376Z,1008.32
2022-07-26T01:04:35.215Z,1008.34
2022-07-26T01:05:35.245Z,1008.32
2022-07-26T01:06:35.278Z,1008.30
2022-07-26T01:08:35.544Z,1008.31
2022-07-26T01:09:35.360Z,1008.35
2022-07-26T01:10:35.594Z,1008.33
2022-07-26T01:18:35.613Z,1008.37
2022-07-26T01:19:35.642Z,1008.40
2022-07-26T01:20:35.678Z,1008.37
2022-07-26T01:21:35.699Z,1008.38
2022-07-26T01:22:35.730Z,1008.34
2022-07-26T01:23:35.760Z,1008.38
2022-07-26T01:24:35.805Z,1008.41
2022-07-26T01:25:42.343Z,1008.34
2022-07-26T01:26:35.848Z,1008.36
2022-07-26T01:27:35.878Z,1008.37
2022-07-26T01:30:16.057Z,1008.33
2022-07-26T01:31:16.185Z,1008.33
2022-07-26T01:32:16.103Z,1008.33
2022-07-26T01:34:16.385Z,1008.34
2022-07-26T01:35:16.208Z,1008.38
2022-07-26T01:36:16.247Z,1008.38
2022-07-26T01:37:16.464Z,1008.41
2022-07-26T01:38:16.609Z,1008.40
2022-07-26T01:39:16.319Z,1008.41
2022-07-26T01:41:16.586Z,1008.41
2022-07-26T01:42:16.410Z,1008.41
2022-07-26T01:44:16.672Z,1008.46
2022-07-26T01:45:16.701Z,1008.40
2022-07-26T01:46:17.582Z,1008.44
2022-07-26T01:47:16.553Z,1008.51
2022-07-26T01:48:16.573Z,1008.50
2022-07-26T01:49:16.668Z,1008.50
2022-07-26T01:50:16.632Z,1008.50
2022-07-26T01:51:16.662Z,1008.55
2022-07-26T01:52:16.689Z,1008.53
2022-07-26T01:53:16.717Z,1008.57
2022-07-26T01:54:22.422Z,1008.55
2022-07-26T01:55:16.977Z,1008.56
2022-07-26T01:56:17.025Z,1008.52
2022-07-26T01:58:17.181Z,1008.57
2022-07-26T01:59:17.110Z,1008.53
2022-07-26T02:00:17.443Z,1008.53
2022-07-26T02:01:17.240Z,1008.52
2022-07-26T02:03:59.563Z,1008.54
2022-07-26T02:04:59.591Z,1008.54
2022-07-26T02:05:59.619Z,1008.59
2022-07-26T02:06:59.667Z,1008.54
2022-07-26T02:07:59.943Z,1008.55
2022-07-26T02:15:00.113Z,1008.65
2022-07-26T02:22:00.089Z,1008.66
2022-07-26T02:23:00.121Z,1008.58
2022-07-26T02:24:00.154Z,1008.60
2022-07-26T02:25:04.979Z,1008.66
2022-07-26T02:31:00.960Z,1008.73
2022-07-26T02:32:01.096Z,1008.75
2022-07-26T02:33:00.417Z,1008.77
2022-07-26T02:34:00.443Z,1008.75
2022-07-26T02:36:00.503Z,1008.80
2022-07-26T02:37:00.734Z,1008.81
2022-07-26T02:39:00.592Z,1008.81
2022-07-26T02:41:01.361Z,1008.87
2022-07-26T02:42:00.990Z,1008.88
2022-07-26T02:43:01.219Z,1008.90
2022-07-26T02:44:01.145Z,1008.87
2022-07-26T02:45:00.768Z,1008.86
2022-07-26T02:46:02.226Z,1008.88
2022-07-26T02:47:01.233Z,1008.93
2022-07-26T02:48:01.571Z,1008.93
2022-07-26T02:49:01.303Z,1008.88
2022-07-26T02:52:00.974Z,1008.92
2022-07-26T02:53:02.121Z,1008.90
2022-07-26T02:54:01.238Z,1008.92
2022-07-26T02:55:01.268Z,1008.93
2022-07-26T02:56:01.094Z,1008.93
2022-07-26T02:58:01.157Z,1008.91
2022-07-26T02:59:01.182Z,1008.90
2022-07-26T03:00:01.414Z,1008.92
2022-07-26T03:01:01.443Z,1008.92
2022-07-26T03:02:01.307Z,1008.96
2022-07-26T03:03:01.467Z,1008.91
2022-07-26T03:06:01.387Z,1008.92
2022-07-26T03:08:01.444Z,1008.92
2022-07-26T03:09:01.675Z,1008.92
2022-07-26T03:11:03.152Z,1008.87
2022-07-26T03:13:01.995Z,1008.87
2022-07-26T03:22:02.469Z,1008.95
2022-07-26T03:26:01.973Z,1008.98
2022-07-26T03:28:02.438Z,1009.03
2022-07-26T03:31:03.339Z,1009.01
2022-07-26T03:35:02.536Z,1009.00
2022-07-26T03:42:02.444Z,1009.08
2022-07-26T03:44:02.503Z,1009.11
2022-07-26T03:45:03.229Z,1009.10
2022-07-26T03:48:03.535Z,1009.14
2022-07-26T03:52:03.654Z,1009.14
2022-07-26T03:55:03.026Z,1009.13
2022-07-26T03:59:03.450Z,1009.12
2022-07-26T04:02:03.452Z,1009.16
2022-07-26T04:03:03.119Z,1009.20
2022-07-26T04:07:03.872Z,1009.22
2022-07-26T04:10:04.369Z,1009.22
2022-07-26T04:22:04.338Z,1009.29
2022-07-26T04:34:04.062Z,1009.31
2022-07-26T04:35:03.994Z,1009.31
2022-07-26T04:36:04.020Z,1009.30
2022-07-26T04:37:04.050Z,1009.31
2022-07-26T04:38:04.087Z,1009.38
2022-07-26T04:39:04.109Z,1009.32
2022-07-26T04:40:04.137Z,1009.35
2022-07-26T04:41:04.170Z,1009.33
2022-07-26T04:42:04.206Z,1009.34
2022-07-26T04:43:04.230Z,1009.32
2022-07-26T04:44:04.267Z,1009.36
2022-07-26T04:45:08.126Z,1009.37
2022-07-26T04:46:04.397Z,1009.35
2022-07-26T04:47:04.345Z,1009.34
2022-07-26T04:48:04.374Z,1009.33
2022-07-26T04:49:04.439Z,1009.30
2022-07-26T04:50:04.448Z,1009.33
2022-07-26T04:51:04.467Z,1009.28
2022-07-26T04:52:04.492Z,1009.31
2022-07-26T04:53:04.521Z,1009.27
2022-07-26T04:54:04.632Z,1009.26
2022-07-26T04:55:04.581Z,1009.35
2022-07-26T04:56:04.610Z,1009.36
2022-07-26T04:57:04.641Z,1009.32
2022-07-26T04:59:06.327Z,1009.29
2022-07-26T05:01:10.403Z,1009.27
2022-07-26T05:03:05.071Z,1009.34
2022-07-26T05:04:06.177Z,1009.30
2022-07-26T05:05:04.894Z,1009.27
2022-07-26T05:09:05.008Z,1009.29
2022-07-26T05:33:18.947Z,1009.38
2022-07-26T05:46:09.697Z,1009.38
2022-07-26T05:47:06.136Z,1009.37
2022-07-26T05:50:06.218Z,1009.39
2022-07-26T05:52:06.278Z,1009.42
2022-07-26T05:53:07.322Z,1009.40
2022-07-26T05:55:06.370Z,1009.41
2022-07-26T06:00:06.724Z,1009.48
2022-07-26T06:03:08.024Z,1009.49
2022-07-26T06:10:07.714Z,1009.48
2022-07-26T06:13:08.114Z,1009.51
2022-07-26T06:16:07.802Z,1009.51
2022-07-26T06:19:08.189Z,1009.56
2022-07-26T06:22:09.095Z,1009.60
2022-07-26T06:30:07.620Z,1009.65
2022-07-26T06:34:10.017Z,1009.69
2022-07-26T06:37:07.928Z,1009.70
2022-07-26T06:39:07.877Z,1009.78
2022-07-26T06:45:08.149Z,1009.86
2022-07-26T06:51:08.030Z,1009.86
2022-07-26T06:53:08.295Z,1009.88
2022-07-26T06:57:08.819Z,1009.90
2022-07-26T06:59:09.567Z,1009.90
2022-07-26T07:00:08.298Z,1009.93
2022-07-26T07:01:08.604Z,1009.91
2022-07-26T07:02:08.458Z,1009.90
2022-07-26T07:03:08.797Z,1009.95
2022-07-26T07:04:08.886Z,1009.93
2022-07-26T07:05:09.392Z,1009.92
2022-07-26T07:06:08.686Z,1009.90
2022-07-26T07:07:12.257Z,1009.92
2022-07-26T07:08:09.146Z,1009.91
2022-07-26T07:11:08.615Z,1009.94
2022-07-26T07:12:10.273Z,1009.93
2022-07-26T07:13:08.676Z,1009.93
2022-07-26T07:14:09.207Z,1009.93
2022-07-26T07:15:08.750Z,1009.94
2022-07-26T07:16:08.834Z,1009.92
2022-07-26T07:17:12.904Z,1009.94
2022-07-26T07:18:08.835Z,1009.96
2022-07-26T07:19:09.074Z,1009.98
2022-07-26T07:20:08.898Z,1010.02
2022-07-26T07:21:08.923Z,1010.06
2022-07-26T07:22:09.361Z,1010.07
2022-07-26T07:23:09.296Z,1010.05
2022-07-26T07:24:12.637Z,1010.06
2022-07-26T07:25:09.655Z,1010.05
2022-07-26T07:26:09.063Z,1010.10
2022-07-26T07:27:09.095Z,1010.09
2022-07-26T07:28:09.122Z,1010.14
2022-07-26T07:29:09.152Z,1010.15
2022-07-26T07:30:09.181Z,1010.11
2022-07-26T07:31:09.269Z,1010.14
2022-07-26T07:32:18.346Z,1010.13
2022-07-26T07:33:09.285Z,1010.14
2022-07-26T07:34:09.656Z,1010.14
2022-07-26T07:35:12.665Z,1010.15
2022-07-26T07:36:09.370Z,1010.20
2022-07-26T07:37:09.406Z,1010.20
2022-07-26T07:38:09.421Z,1010.28
2022-07-26T07:39:15.364Z,1010.28
2022-07-26T07:40:09.480Z,1010.26
2022-07-26T07:41:09.511Z,1010.28
2022-07-26T07:42:09.542Z,1010.27
2022-07-26T07:43:09.574Z,1010.25
2022-07-26T07:44:09.922Z,1010.22
2022-07-26T07:45:09.632Z,1010.27
2022-07-26T07:46:09.664Z,1010.24
2022-07-26T07:47:09.737Z,1010.30
2022-07-26T07:48:09.720Z,1010.32
2022-07-26T07:49:10.146Z,1010.28
2022-07-26T07:50:09.785Z,1010.29
2022-07-26T07:51:09.813Z,1010.28
2022-07-26T07:52:09.844Z,1010.32
2022-07-26T07:53:09.886Z,1010.28
2022-07-26T07:54:09.903Z,1010.23
2022-07-26T07:55:41.543Z,1010.25
2022-07-26T07:56:09.964Z,1010.29
2022-07-26T07:57:09.994Z,1010.29
2022-07-26T07:58:10.030Z,1010.33
2022-07-26T07:59:10.561Z,1010.27
2022-07-26T08:00:10.085Z,1010.33
2022-07-26T08:01:10.199Z,1010.32
2022-07-26T08:02:10.144Z,1010.31
2022-07-26T08:03:10.174Z,1010.28
2022-07-26T08:04:10.488Z,1010.33
2022-07-26T08:05:14.144Z,1010.31
2022-07-26T08:06:10.264Z,1010.34
2022-07-26T08:07:10.309Z,1010.31
2022-07-26T08:08:10.324Z,1010.32
2022-07-26T08:09:13.148Z,1010.32
2022-07-26T08:10:10.385Z,1010.28
2022-07-26T08:11:10.416Z,1010.30
2022-07-26T08:12:10.444Z,1010.31
2022-07-26T08:13:10.477Z,1010.28
2022-07-26T08:14:10.512Z,1010.27
2022-07-26T08:15:10.537Z,1010.28
2022-07-26T08:16:10.603Z,1010.31
2022-07-26T08:17:10.598Z,1010.34
2022-07-26T08:18:10.629Z,1010.27
2022-07-26T08:19:10.941Z,1010.24
2022-07-26T08:20:13.769Z,1010.29
2022-07-26T08:21:10.721Z,1010.30
2022-07-26T08:22:10.769Z,1010.26
2022-07-26T08:23:10.782Z,1010.31
2022-07-26T08:24:10.816Z,1010.29
2022-07-26T08:25:10.843Z,1010.31
2022-07-26T08:26:10.877Z,1010.29
2022-07-26T08:27:10.904Z,1010.30
2022-07-26T08:28:24.938Z,1010.30
2022-07-26T08:29:11.311Z,1010.27
2022-07-26T08:30:10.999Z,1010.29
2022-07-26T08:31:11.097Z,1010.30
2022-07-26T08:32:11.063Z,1010.36
2022-07-26T08:33:11.093Z,1010.34
2022-07-26T08:34:11.123Z,1010.34
2022-07-26T08:35:17.671Z,1010.34
2022-07-26T08:36:11.183Z,1010.34
2022-07-26T08:37:18.666Z,1010.39
2022-07-26T08:38:11.246Z,1010.42
2022-07-26T08:39:11.409Z,1010.38
2022-07-26T08:40:11.313Z,1010.44
2022-07-26T08:41:11.335Z,1010.42
2022-07-26T08:42:11.368Z,1010.46
2022-07-26T08:43:11.396Z,1010.48
2022-07-26T08:44:11.429Z,1010.47
2022-07-26T08:45:11.456Z,1010.45
2022-07-26T08:46:11.714Z,1010.53
2022-07-26T08:47:11.545Z,1010.54
2022-07-26T08:48:18.998Z,1010.62
2022-07-26T08:49:12.496Z,1010.58
2022-07-26T08:50:11.612Z,1010.62
2022-07-26T08:51:11.641Z,1010.59
2022-07-26T08:52:11.677Z,1010.54
2022-07-26T08:53:11.704Z,1010.52
2022-07-26T08:54:11.736Z,1010.57
2022-07-26T08:55:11.765Z,1010.62
2022-07-26T08:56:11.799Z,1010.60
2022-07-26T08:57:11.829Z,1010.63
2022-07-26T08:58:11.862Z,1010.55
2022-07-26T08:59:17.161Z,1010.54
2022-07-26T09:00:11.922Z,1010.56
2022-07-26T09:01:12.003Z,1010.56
2022-07-26T09:02:11.987Z,1010.55
2022-07-26T09:03:12.014Z,1010.54
2022-07-26T09:04:13.778Z,1010.51
2022-07-26T09:05:12.078Z,1010.53
2022-07-26T09:06:12.111Z,1010.53
2022-07-26T09:07:12.143Z,1010.54
2022-07-26T09:08:12.176Z,1010.64
2022-07-26T09:09:12.205Z,1010.61
2022-07-26T09:10:12.238Z,1010.57
2022-07-26T09:11:12.267Z,1010.60
2022-07-26T09:12:12.302Z,1010.59
2022-07-26T09:13:12.335Z,1010.55
2022-07-26T09:14:12.364Z,1010.60
2022-07-26T09:15:12.394Z,1010.65
2022-07-26T09:16:12.563Z,1010.61
2022-07-26T09:17:12.458Z,1010.86
2022-07-26T09:18:12.492Z,1010.83
2022-07-26T09:19:12.522Z,1010.80
2022-07-26T09:20:12.558Z,1010.93
2022-07-26T09:21:12.586Z,1010.79
2022-07-26T09:22:12.619Z,1010.86
2022-07-26T09:23:12.650Z,1010.95
2022-07-26T09:24:12.695Z,1010.92
2022-07-26T09:25:15.944Z,1010.97
2022-07-26T09:26:12.749Z,1010.99
2022-07-26T09:27:12.780Z,1010.94
2022-07-26T09:28:12.813Z,1010.98
2022-07-26T09:29:13.748Z,1010.93
2022-07-26T09:30:12.883Z,1010.84
2022-07-26T09:31:12.991Z,1010.96
2022-07-26T09:32:12.946Z,1010.92
2022-07-26T09:33:12.979Z,1010.59
2022-07-26T09:34:13.388Z,1010.88
2022-07-26T09:35:45.376Z,1010.94
2022-07-26T09:36:13.080Z,1010.94
2022-07-26T09:38:48.244Z,1010.91
2022-07-26T09:39:48.283Z,1010.60
2022-07-26T09:40:51.553Z,1010.58
2022-07-26T09:42:04.792Z,1010.54
2022-07-26T09:42:48.386Z,1010.56
2022-07-26T09:43:53.477Z,1010.54
2022-07-26T09:44:48.457Z,1010.54
2022-07-26T09:45:48.493Z,1010.50
2022-07-26T09:46:48.563Z,1010.50
2022-07-26T09:47:48.566Z,1010.49
2022-07-26T09:49:48.701Z,1010.49
2022-07-26T09:50:48.709Z,1010.50
2022-07-26T09:51:48.702Z,1010.46
2022-07-26T09:52:48.735Z,1010.53
2022-07-26T09:53:48.773Z,1010.51
2022-07-26T09:54:48.805Z,1010.48
2022-07-26T09:55:48.839Z,1010.51
2022-07-26T09:56:48.872Z,1010.46
2022-07-26T09:57:48.907Z,1010.44
2022-07-26T09:58:48.939Z,1010.47
2022-07-26T09:59:48.976Z,1010.45
2022-07-26T10:00:49.009Z,1010.48
2022-07-26T10:01:49.127Z,1010.56
2022-07-26T10:02:49.112Z,1010.64
2022-07-26T10:03:49.109Z,1010.89
2022-07-26T10:04:49.141Z,1010.58
2022-07-26T10:05:49.176Z,1010.65
2022-07-26T10:06:49.206Z,1010.85
2022-07-26T10:07:49.244Z,1010.87
2022-07-26T10:09:49.311Z,1010.66
2022-07-26T10:10:49.345Z,1010.60
2022-07-26T10:11:49.377Z,1010.51
2022-07-26T10:12:49.411Z,1010.51
2022-07-26T10:13:49.442Z,1010.55
2022-07-26T10:14:49.474Z,1010.53
2022-07-26T10:15:49.562Z,1010.56
2022-07-26T10:16:49.542Z,1010.58
2022-07-26T10:17:49.690Z,1010.54
2022-07-26T10:18:49.607Z,1010.53
2022-07-26T10:19:49.639Z,1010.54
2022-07-26T10:20:49.675Z,1010.56
2022-07-26T10:21:49.705Z,1010.59
2022-07-26T10:22:49.737Z,1010.83
2022-07-26T10:23:49.769Z,1010.75
2022-07-26T10:24:53.070Z,1010.83
2022-07-26T10:25:49.836Z,1010.77
2022-07-26T10:26:49.870Z,1010.90
2022-07-26T10:27:49.904Z,1010.88
2022-07-26T10:28:49.934Z,1010.59
2022-07-26T10:29:49.968Z,1010.59
2022-07-26T10:30:50.056Z,1010.61
2022-07-26T10:31:50.094Z,1010.62
2022-07-26T10:32:50.065Z,1010.85
2022-07-26T10:33:50.299Z,1010.89
2022-07-26T10:34:50.132Z,1010.87
2022-07-26T10:35:50.161Z,1010.90
2022-07-26T10:36:53.182Z,1010.93
2022-07-26T10:37:50.230Z,1010.71
2022-07-26T10:38:50.262Z,1010.69
2022-07-26T10:39:50.294Z,1010.63
2022-07-26T10:40:50.329Z,1010.52
2022-07-26T10:41:50.363Z,1010.53
2022-07-26T10:42:50.396Z,1010.79
2022-07-26T10:43:50.426Z,1010.79
2022-07-26T10:44:50.462Z,1010.72
2022-07-26T10:45:50.494Z,1010.69
2022-07-26T10:46:50.619Z,1010.68
2022-07-26T10:47:50.559Z,1010.64
2022-07-26T10:48:50.667Z,1010.73
2022-07-26T10:49:50.627Z,1010.69
2022-07-26T10:50:50.663Z,1010.67
2022-07-26T10:51:50.697Z,1010.74
2022-07-26T10:52:50.729Z,1010.64
2022-07-26T10:53:50.762Z,1010.65
2022-07-26T10:54:50.801Z,1010.70
2022-07-26T10:55:50.829Z,1010.74
2022-07-26T10:56:50.871Z,1010.73
2022-07-26T10:57:50.950Z,1010.43
2022-07-26T10:58:50.934Z,1010.72
2022-07-26T10:59:56.089Z,1010.66
2022-07-26T11:00:51.004Z,1010.67
2022-07-26T11:01:51.091Z,1010.69
2022-07-26T11:02:51.149Z,1010.69
2022-07-26T11:03:51.105Z,1010.71
2022-07-26T11:04:51.140Z,1010.65
2022-07-26T11:05:51.174Z,1010.62
2022-07-26T11:06:51.218Z,1010.56
2022-07-26T11:07:51.245Z,1010.46
2022-07-26T11:08:51.283Z,1010.55
2022-07-26T11:09:51.314Z,1010.57
2022-07-26T11:10:51.351Z,1010.67
2022-07-26T11:11:51.486Z,1010.72
2022-07-26T11:12:51.422Z,1010.70
2022-07-26T11:13:51.476Z,1010.62
2022-07-26T11:14:51.493Z,1010.62
2022-07-26T11:15:51.617Z,1010.68
2022-07-26T11:16:51.562Z,1010.63
2022-07-26T11:17:51.597Z,1010.68
2022-07-26T11:18:51.633Z,1010.69
2022-07-26T11:19:51.666Z,1010.62
2022-07-26T11:20:51.704Z,1010.64
2022-07-26T11:21:51.741Z,1010.63
2022-07-26T11:22:51.775Z,1010.55
2022-07-26T11:23:51.813Z,1010.57
2022-07-26T11:24:51.849Z,1010.60
2022-07-26T11:25:51.882Z,1010.58
2022-07-26T11:26:51.918Z,1010.31
2022-07-26T11:27:51.954Z,1010.32
2022-07-26T11:28:51.991Z,1010.27
2022-07-26T11:29:52.024Z,1010.35
2022-07-26T11:30:52.151Z,1010.29
2022-07-26T11:31:58.159Z,1010.34
2022-07-26T11:32:52.133Z,1010.35
2022-07-26T11:33:52.173Z,1010.36
2022-07-26T11:34:52.204Z,1010.35
2022-07-26T11:35:52.237Z,1010.29
2022-07-26T11:36:52.273Z,1010.38
2022-07-26T11:37:52.306Z,1010.42
2022-07-26T11:38:52.343Z,1010.46
2022-07-26T11:39:52.376Z,1010.39
2022-07-26T11:40:52.412Z,1010.38
2022-07-26T11:41:52.458Z,1010.37
2022-07-26T11:42:52.480Z,1010.36
2022-07-26T11:43:52.521Z,1010.44
2022-07-26T11:44:52.548Z,1010.53
2022-07-26T11:45:52.619Z,1010.38
2022-07-26T11:46:52.678Z,1010.35
2022-07-26T11:48:35.214Z,1010.33
2022-07-26T11:50:00.538Z,1010.32
2022-07-26T11:50:35.270Z,1010.34
2022-07-26T11:51:35.303Z,1010.33
2022-07-26T11:52:35.346Z,1010.35
2022-07-26T11:53:35.370Z,1010.38
2022-07-26T11:54:35.403Z,1010.37
2022-07-26T11:55:35.435Z,1010.36
2022-07-26T11:56:35.476Z,1010.34
2022-07-26T11:57:35.502Z,1010.36
2022-07-26T11:58:35.532Z,1010.36
2022-07-26T11:59:35.571Z,1010.39
2022-07-26T12:00:38.220Z,1010.46
2022-07-26T12:01:35.633Z,1010.45
2022-07-26T12:02:35.661Z,1010.41
2022-07-26T12:03:35.698Z,1010.43
2022-07-26T12:04:35.873Z,1010.49
2022-07-26T12:05:35.821Z,1010.49
2022-07-26T12:06:35.789Z,1010.48
2022-07-26T12:07:35.827Z,1010.49
2022-07-26T12:08:35.853Z,1010.54
2022-07-26T12:09:36.499Z,1010.54
2022-07-26T12:10:35.917Z,1010.55
2022-07-26T12:11:35.953Z,1010.58
2022-07-26T12:12:35.981Z,1010.69
2022-07-26T12:13:39.805Z,1010.69
2022-07-26T12:14:36.045Z,1010.75
2022-07-26T12:15:36.143Z,1010.76
2022-07-26T12:16:36.109Z,1010.80
2022-07-26T12:17:36.145Z,1010.82
2022-07-26T12:18:36.172Z,1010.78
2022-07-26T12:19:36.206Z,1010.79
2022-07-26T12:20:36.234Z,1010.80
2022-07-26T12:21:36.267Z,1010.92
2022-07-26T12:22:36.298Z,1010.89
2022-07-26T12:23:36.331Z,1010.92
2022-07-26T12:24:36.360Z,1010.88
2022-07-26T12:25:36.393Z,1010.93
2022-07-26T12:26:36.422Z,1010.90
2022-07-26T12:27:36.456Z,1010.90
2022-07-26T12:28:36.487Z,1010.88
2022-07-26T12:29:36.523Z,1010.91
2022-07-26T12:30:36.592Z,1010.89
2022-07-26T12:31:36.666Z,1010.92
2022-07-26T12:32:36.611Z,1010.85
2022-07-26T12:33:36.643Z,1010.89
2022-07-26T12:34:36.681Z,1010.91
2022-07-26T12:35:36.707Z,1010.89
2022-07-26T12:36:36.737Z,1010.92
2022-07-26T12:37:40.627Z,1010.86
2022-07-26T12:38:36.799Z,1010.86
2022-07-26T12:39:36.833Z,1010.83
2022-07-26T12:40:36.863Z,1010.82
2022-07-26T12:41:36.971Z,1010.85
2022-07-26T12:42:36.923Z,1010.79
2022-07-26T12:43:36.958Z,1010.86
2022-07-26T12:44:37.388Z,1010.76
2022-07-26T12:45:37.018Z,1010.84
2022-07-26T12:46:37.246Z,1010.80
2022-07-26T12:47:37.080Z,1010.79
2022-07-26T12:48:37.216Z,1010.75
2022-07-26T12:49:37.143Z,1010.78
2022-07-26T12:50:37.174Z,1010.79
2022-07-26T12:51:37.206Z,1010.79
2022-07-26T12:52:37.238Z,1010.82
2022-07-26T12:53:37.269Z,1010.81
2022-07-26T12:54:37.308Z,1010.85
2022-07-26T12:55:37.331Z,1010.84
2022-07-26T12:56:37.363Z,1010.80
2022-07-26T12:57:37.393Z,1010.83
2022-07-26T12:58:37.425Z,1010.86
2022-07-26T12:59:42.286Z,1010.77
2022-07-26T13:00:37.488Z,1010.92
2022-07-26T13:01:37.579Z,1010.93
2022-07-26T13:02:37.553Z,1010.96
2022-07-26T13:03:37.584Z,1010.92
2022-07-26T13:04:37.681Z,1010.86
2022-07-26T13:05:37.649Z,1010.91
2022-07-26T13:06:37.679Z,1010.88
2022-07-26T13:07:37.743Z,1010.94
2022-07-26T13:08:37.765Z,1010.88
2022-07-26T13:09:37.777Z,1010.87
2022-07-26T13:10:37.953Z,1010.77
2022-07-26T13:11:37.841Z,1010.79
2022-07-26T13:12:37.872Z,1010.72
2022-07-26T13:13:37.904Z,1010.67
2022-07-26T13:14:37.937Z,1010.71
2022-07-26T13:15:38.190Z,1010.67
2022-07-26T13:16:38.034Z,1010.65
2022-07-26T13:17:38.034Z,1010.61
2022-07-26T13:18:38.079Z,1010.70
2022-07-26T13:19:38.096Z,1010.56
2022-07-26T13:20:38.200Z,1010.60
2022-07-26T13:21:38.163Z,1010.61
2022-07-26T13:22:38.193Z,1010.59
2022-07-26T13:23:38.228Z,1010.59
2022-07-26T13:24:38.262Z,1010.63
2022-07-26T13:25:40.321Z,1010.68
2022-07-26T13:26:38.322Z,1010.63
2022-07-26T13:27:44.332Z,1010.68
2022-07-26T13:28:38.384Z,1010.61
2022-07-26T13:29:38.417Z,1010.58
2022-07-26T13:30:38.587Z,1010.73
2022-07-26T13:31:38.482Z,1010.69
2022-07-26T13:32:38.510Z,1010.72
2022-07-26T13:33:38.545Z,1010.61
2022-07-26T13:34:38.575Z,1010.66
2022-07-26T13:35:38.609Z,1010.67
2022-07-26T13:36:38.642Z,1010.71
2022-07-26T13:37:38.689Z,1010.65
2022-07-26T13:38:38.702Z,1010.61
2022-07-26T13:39:38.735Z,1010.52
2022-07-26T13:40:38.767Z,1010.71
2022-07-26T13:41:38.800Z,1010.64
2022-07-26T13:42:39.152Z,1010.61
2022-07-26T13:43:38.870Z,1010.58
2022-07-26T13:44:38.891Z,1010.62
2022-07-26T13:45:39.018Z,1010.64
2022-07-26T13:46:39.000Z,1010.66
2022-07-26T13:47:38.989Z,1010.61
2022-07-26T13:49:56.655Z,1010.56
2022-07-26T13:50:56.698Z,1010.57
2022-07-26T13:51:56.718Z,1010.64
2022-07-26T13:52:57.022Z,1010.58
2022-07-26T13:53:57.590Z,1010.64
2022-07-26T13:54:56.818Z,1010.58
2022-07-26T13:55:56.849Z,1010.57
2022-07-26T13:56:56.884Z,1010.55
2022-07-26T13:57:58.166Z,1010.59
2022-07-26T13:58:56.949Z,1010.60
2022-07-26T13:59:56.973Z,1010.60
2022-07-26T14:00:57.077Z,1010.56
2022-07-26T14:01:57.186Z,1010.61
2022-07-26T14:02:57.210Z,1010.60
2022-07-26T14:03:57.102Z,1010.57
2022-07-26T14:04:57.138Z,1010.56
2022-07-26T14:05:57.166Z,1010.59
2022-07-26T14:06:57.199Z,1010.58
2022-07-26T14:07:57.268Z,1010.59
2022-07-26T14:08:57.265Z,1010.58
2022-07-26T14:09:57.294Z,1010.58
2022-07-26T14:10:57.328Z,1010.58
2022-07-26T14:11:57.359Z,1010.52
2022-07-26T14:12:57.393Z,1010.57
2022-07-26T14:13:57.421Z,1010.46
2022-07-26T14:14:57.455Z,1010.49
2022-07-26T14:15:57.492Z,1010.54
2022-07-26T14:16:57.594Z,1010.58
2022-07-26T14:17:57.549Z,1010.54
2022-07-26T14:18:57.583Z,1010.52
2022-07-26T14:19:57.686Z,1010.44
2022-07-26T14:20:57.649Z,1010.41
2022-07-26T14:21:59.137Z,1010.43
2022-07-26T14:22:57.711Z,1010.48
2022-07-26T14:23:57.740Z,1010.47
2022-07-26T14:24:57.775Z,1010.53
2022-07-26T14:25:57.804Z,1010.54
2022-07-26T14:26:59.436Z,1010.45
2022-07-26T14:27:57.868Z,1010.46
2022-07-26T14:28:57.902Z,1010.51
2022-07-26T14:29:57.976Z,1010.51
2022-07-26T14:30:57.965Z,1010.51
2022-07-26T14:31:58.185Z,1010.54
2022-07-26T14:32:58.029Z,1010.52
2022-07-26T14:33:58.060Z,1010.45
2022-07-26T14:34:58.095Z,1010.41
2022-07-26T14:35:58.123Z,1010.48
2022-07-26T14:36:58.157Z,1010.50
2022-07-26T14:37:58.188Z,1010.47
2022-07-26T14:38:58.222Z,1010.45
2022-07-26T14:39:58.276Z,1010.44
2022-07-26T14:40:58.285Z,1010.53
2022-07-26T14:41:58.314Z,1010.46
2022-07-26T14:42:58.349Z,1010.48
2022-07-26T14:43:58.378Z,1010.55
2022-07-26T14:44:58.414Z,1010.56
2022-07-26T14:45:58.488Z,1010.57
2022-07-26T14:46:58.478Z,1010.59
2022-07-26T14:47:58.507Z,1010.56
2022-07-26T14:48:58.648Z,1010.58
2022-07-26T14:50:02.768Z,1010.64
2022-07-26T14:51:09.064Z,1010.64
2022-07-26T14:51:58.634Z,1010.67
2022-07-26T14:52:58.669Z,1010.60
2022-07-26T14:53:58.699Z,1010.73
2022-07-26T14:54:58.731Z,1010.71
2022-07-26T14:55:58.761Z,1010.68
2022-07-26T14:56:58.795Z,1010.68
2022-07-26T14:57:58.824Z,1010.70
2022-07-26T14:58:58.858Z,1010.71
2022-07-26T14:59:58.889Z,1010.76
2022-07-26T15:00:58.958Z,1010.75
2022-07-26T15:02:02.606Z,1010.73
2022-07-26T15:02:58.985Z,1010.71
2022-07-26T15:03:59.014Z,1010.72
2022-07-26T15:04:59.049Z,1010.73
2022-07-26T15:05:59.077Z,1010.74
2022-07-26T15:06:59.110Z,1010.75
2022-07-26T15:08:04.132Z,1010.66
2022-07-26T15:08:59.176Z,1010.72
2022-07-26T15:09:59.203Z,1010.73
2022-07-26T15:10:59.236Z,1010.75
2022-07-26T15:11:59.269Z,1010.77
2022-07-26T15:12:59.300Z,1010.72
2022-07-26T15:14:03.877Z,1010.71
2022-07-26T15:14:59.363Z,1010.69
2022-07-26T15:15:59.443Z,1010.73
2022-07-26T15:16:59.477Z,1010.76
2022-07-26T15:17:59.458Z,1010.80
2022-07-26T15:18:59.487Z,1010.81
2022-07-26T15:19:59.518Z,1010.77
2022-07-26T15:20:59.552Z,1010.79
2022-07-26T15:21:59.580Z,1010.75
2022-07-26T15:22:59.616Z,1010.90
2022-07-26T15:23:59.645Z,1010.85
2022-07-26T15:24:59.681Z,1010.80
2022-07-26T15:25:59.709Z,1010.79
2022-07-26T15:26:59.740Z,1010.76
2022-07-26T15:27:59.769Z,1010.77
2022-07-26T15:28:59.801Z,1010.77
2022-07-26T15:30:04.281Z,1010.83
2022-07-26T15:30:59.861Z,1010.79
2022-07-26T15:31:59.964Z,1010.89
2022-07-26T15:32:59.925Z,1010.85
2022-07-26T15:33:59.953Z,1010.86
2022-07-26T15:34:59.987Z,1010.86
2022-07-26T15:36:04.009Z,1010.88
2022-07-26T15:37:00.058Z,1010.88
2022-07-26T15:38:00.076Z,1010.91
2022-07-26T15:39:15.590Z,1010.98